sensor_id;sensor_type;location;lat;lon;timestamp;P1;durP1;ratioP1;P2;durP2;ratioP2
56770;SDS011;42641;59.794;17.616;2023-02-15T00:02:19;9.37;;;7.53;;
56770;SDS011;42641;59.794;17.616;2023-02-15T00:04:45;11.53;;;7.23;;
56770;SDS011;42641;59.794;17.616;2023-02-15T00:07:15;13.03;;;6.80;;
56770;SDS011;42641;59.794;17.616;2023-02-15T00:09:44;10.97;;;6.27;;
56770;SDS011;42641;59.794;17.616;2023-02-15T00:12:12;7.47;;;6.03;;
56770;SDS011;42641;59.794;17.616;2023-02-15T00:14:38;9.07;;;5.97;;
56770;SDS011;42641;59.794;17.616;2023-02-15T00:17:05;10.37;;;5.97;;
56770;SDS011;42641;59.794;17.616;2023-02-15T00:19:31;10.23;;;5.93;;
56770;SDS011;42641;59.794;17.616;2023-02-15T00:21:57;7.43;;;5.57;;
56770;SDS011;42641;59.794;17.616;2023-02-15T00:24:24;9.93;;;5.73;;
56770;SDS011;42641;59.794;17.616;2023-02-15T00:26:50;8.73;;;5.40;;
56770;SDS011;42641;59.794;17.616;2023-02-15T00:29:17;7.83;;;5.20;;
56770;SDS011;42641;59.794;17.616;2023-02-15T00:31:45;6.47;;;5.20;;
56770;SDS011;42641;59.794;17.616;2023-02-15T00:34:21;7.60;;;5.50;;
56770;SDS011;42641;59.794;17.616;2023-02-15T00:36:49;8.93;;;5.10;;
56770;SDS011;42641;59.794;17.616;2023-02-15T00:39:16;6.87;;;4.97;;
56770;SDS011;42641;59.794;17.616;2023-02-15T00:41:43;6.90;;;4.90;;
56770;SDS011;42641;59.794;17.616;2023-02-15T00:44:11;5.67;;;4.37;;
56770;SDS011;42641;59.794;17.616;2023-02-15T00:46:38;5.30;;;4.33;;
56770;SDS011;42641;59.794;17.616;2023-02-15T00:49:07;6.20;;;4.37;;
56770;SDS011;42641;59.794;17.616;2023-02-15T00:51:34;5.97;;;4.30;;
56770;SDS011;42641;59.794;17.616;2023-02-15T00:54:00;5.40;;;4.37;;
56770;SDS011;42641;59.794;17.616;2023-02-15T00:56:29;5.10;;;4.10;;
56770;SDS011;42641;59.794;17.616;2023-02-15T00:58:55;5.90;;;3.77;;
56770;SDS011;42641;59.794;17.616;2023-02-15T01:01:21;3.87;;;3.43;;
56770;SDS011;42641;59.794;17.616;2023-02-15T01:03:50;3.97;;;3.53;;
56770;SDS011;42641;59.794;17.616;2023-02-15T01:06:17;3.53;;;3.23;;
56770;SDS011;42641;59.794;17.616;2023-02-15T01:08:44;3.90;;;3.43;;
56770;SDS011;42641;59.794;17.616;2023-02-15T01:11:13;3.90;;;3.00;;
56770;SDS011;42641;59.794;17.616;2023-02-15T01:13:48;4.43;;;2.87;;
56770;SDS011;42641;59.794;17.616;2023-02-15T01:16:15;4.00;;;3.03;;
56770;SDS011;42641;59.794;17.616;2023-02-15T01:18:42;4.03;;;3.30;;
56770;SDS011;42641;59.794;17.616;2023-02-15T01:21:13;5.90;;;3.77;;
56770;SDS011;42641;59.794;17.616;2023-02-15T01:23:43;5.23;;;3.90;;
56770;SDS011;42641;59.794;17.616;2023-02-15T01:26:12;4.17;;;3.43;;
56770;SDS011;42641;59.794;17.616;2023-02-15T01:28:39;3.40;;;2.73;;
56770;SDS011;42641;59.794;17.616;2023-02-15T01:31:07;4.03;;;3.53;;
56770;SDS011;42641;59.794;17.616;2023-02-15T01:33:35;4.43;;;3.60;;
56770;SDS011;42641;59.794;17.616;2023-02-15T01:36:02;4.27;;;3.50;;
56770;SDS011;42641;59.794;17.616;2023-02-15T01:38:31;5.43;;;3.73;;
56770;SDS011;42641;59.794;17.616;2023-02-15T01:40:58;5.10;;;3.73;;
56770;SDS011;42641;59.794;17.616;2023-02-15T01:43:49;6.90;;;4.00;;
56770;SDS011;42641;59.794;17.616;2023-02-15T01:46:27;5.53;;;3.80;;
56770;SDS011;42641;59.794;17.616;2023-02-15T01:49:03;4.23;;;3.83;;
56770;SDS011;42641;59.794;17.616;2023-02-15T01:51:41;5.93;;;3.97;;
56770;SDS011;42641;59.794;17.616;2023-02-15T01:56:46;6.10;;;4.00;;
56770;SDS011;42641;59.794;17.616;2023-02-15T01:59:16;4.73;;;3.90;;
56770;SDS011;42641;59.794;17.616;2023-02-15T02:01:48;4.33;;;3.70;;
56770;SDS011;42641;59.794;17.616;2023-02-15T02:06:56;4.97;;;3.80;;
56770;SDS011;42641;59.794;17.616;2023-02-15T02:09:23;4.70;;;3.80;;
56770;SDS011;42641;59.794;17.616;2023-02-15T02:11:50;6.37;;;4.43;;
56770;SDS011;42641;59.794;17.616;2023-02-15T02:14:17;5.03;;;4.53;;
56770;SDS011;42641;59.794;17.616;2023-02-15T02:16:50;7.53;;;4.07;;
56770;SDS011;42641;59.794;17.616;2023-02-15T02:19:54;5.23;;;3.83;;
56770;SDS011;42641;59.794;17.616;2023-02-15T02:25:59;4.80;;;3.63;;
56770;SDS011;42641;59.794;17.616;2023-02-15T02:28:45;7.10;;;3.97;;
56770;SDS011;42641;59.794;17.616;2023-02-15T02:42:48;4.93;;;3.80;;
56770;SDS011;42641;59.794;17.616;2023-02-15T02:47:49;6.23;;;4.50;;
56770;SDS011;42641;59.794;17.616;2023-02-15T02:50:26;5.57;;;4.30;;
56770;SDS011;42641;59.794;17.616;2023-02-15T02:52:56;5.87;;;3.80;;
56770;SDS011;42641;59.794;17.616;2023-02-15T03:03:24;7.37;;;4.17;;
56770;SDS011;42641;59.794;17.616;2023-02-15T03:05:57;7.63;;;5.00;;
56770;SDS011;42641;59.794;17.616;2023-02-15T03:08:32;8.80;;;4.97;;
56770;SDS011;42641;59.794;17.616;2023-02-15T03:11:06;7.60;;;4.27;;
56770;SDS011;42641;59.794;17.616;2023-02-15T03:13:35;8.17;;;4.70;;
56770;SDS011;42641;59.794;17.616;2023-02-15T03:16:04;8.43;;;4.73;;
56770;SDS011;42641;59.794;17.616;2023-02-15T03:18:52;12.33;;;5.17;;
56770;SDS011;42641;59.794;17.616;2023-02-15T03:21:31;7.20;;;5.20;;
56770;SDS011;42641;59.794;17.616;2023-02-15T03:24:09;7.00;;;4.67;;
56770;SDS011;42641;59.794;17.616;2023-02-15T03:26:39;8.67;;;4.63;;
56770;SDS011;42641;59.794;17.616;2023-02-15T03:29:11;8.03;;;5.10;;
56770;SDS011;42641;59.794;17.616;2023-02-15T03:31:40;6.60;;;4.70;;
56770;SDS011;42641;59.794;17.616;2023-02-15T03:34:10;7.63;;;5.20;;
56770;SDS011;42641;59.794;17.616;2023-02-15T03:39:19;6.13;;;4.90;;
56770;SDS011;42641;59.794;17.616;2023-02-15T03:45:00;9.43;;;5.20;;
56770;SDS011;42641;59.794;17.616;2023-02-15T03:47:35;8.03;;;5.17;;
56770;SDS011;42641;59.794;17.616;2023-02-15T03:50:15;8.23;;;4.97;;
56770;SDS011;42641;59.794;17.616;2023-02-15T03:53:13;6.53;;;5.07;;
56770;SDS011;42641;59.794;17.616;2023-02-15T03:55:42;7.23;;;4.60;;
56770;SDS011;42641;59.794;17.616;2023-02-15T03:58:12;7.87;;;5.17;;
56770;SDS011;42641;59.794;17.616;2023-02-15T04:00:59;11.63;;;5.30;;
56770;SDS011;42641;59.794;17.616;2023-02-15T04:04:09;7.33;;;5.23;;
56770;SDS011;42641;59.794;17.616;2023-02-15T04:06:43;8.57;;;5.10;;
56770;SDS011;42641;59.794;17.616;2023-02-15T04:09:11;8.90;;;5.37;;
56770;SDS011;42641;59.794;17.616;2023-02-15T04:11:57;9.23;;;5.63;;
56770;SDS011;42641;59.794;17.616;2023-02-15T04:14:23;7.00;;;5.07;;
56770;SDS011;42641;59.794;17.616;2023-02-15T04:17:09;10.70;;;5.90;;
56770;SDS011;42641;59.794;17.616;2023-02-15T04:19:35;12.53;;;5.80;;
56770;SDS011;42641;59.794;17.616;2023-02-15T04:22:21;8.97;;;5.53;;
56770;SDS011;42641;59.794;17.616;2023-02-15T04:25:06;6.20;;;5.00;;
56770;SDS011;42641;59.794;17.616;2023-02-15T04:27:35;11.03;;;5.67;;
56770;SDS011;42641;59.794;17.616;2023-02-15T04:30:02;7.73;;;5.93;;
56770;SDS011;42641;59.794;17.616;2023-02-15T04:32:29;7.77;;;5.57;;
56770;SDS011;42641;59.794;17.616;2023-02-15T04:34:56;9.30;;;5.50;;
56770;SDS011;42641;59.794;17.616;2023-02-15T04:37:22;9.10;;;5.97;;
56770;SDS011;42641;59.794;17.616;2023-02-15T04:39:48;10.67;;;6.30;;
56770;SDS011;42641;59.794;17.616;2023-02-15T04:42:15;12.10;;;6.90;;
56770;SDS011;42641;59.794;17.616;2023-02-15T04:44:42;11.17;;;6.97;;
56770;SDS011;42641;59.794;17.616;2023-02-15T04:47:09;8.93;;;6.17;;
56770;SDS011;42641;59.794;17.616;2023-02-15T04:49:35;10.17;;;6.77;;
56770;SDS011;42641;59.794;17.616;2023-02-15T04:52:02;11.27;;;6.70;;
56770;SDS011;42641;59.794;17.616;2023-02-15T04:54:28;12.30;;;7.47;;
56770;SDS011;42641;59.794;17.616;2023-02-15T04:56:55;9.07;;;6.83;;
56770;SDS011;42641;59.794;17.616;2023-02-15T04:59:21;12.33;;;7.20;;
56770;SDS011;42641;59.794;17.616;2023-02-15T05:01:47;9.80;;;7.13;;
56770;SDS011;42641;59.794;17.616;2023-02-15T05:04:13;12.53;;;8.00;;
56770;SDS011;42641;59.794;17.616;2023-02-15T05:06:40;12.67;;;7.93;;
56770;SDS011;42641;59.794;17.616;2023-02-15T05:09:06;11.10;;;7.40;;
56770;SDS011;42641;59.794;17.616;2023-02-15T05:11:33;13.20;;;8.23;;
56770;SDS011;42641;59.794;17.616;2023-02-15T05:13:59;11.63;;;7.33;;
56770;SDS011;42641;59.794;17.616;2023-02-15T05:16:26;10.37;;;7.23;;
56770;SDS011;42641;59.794;17.616;2023-02-15T05:18:53;12.00;;;7.60;;
56770;SDS011;42641;59.794;17.616;2023-02-15T05:21:19;10.97;;;6.80;;
56770;SDS011;42641;59.794;17.616;2023-02-15T05:23:46;12.90;;;7.40;;
56770;SDS011;42641;59.794;17.616;2023-02-15T05:26:12;9.40;;;6.93;;
56770;SDS011;42641;59.794;17.616;2023-02-15T05:29:02;13.63;;;7.83;;
56770;SDS011;42641;59.794;17.616;2023-02-15T05:31:28;12.97;;;7.97;;
56770;SDS011;42641;59.794;17.616;2023-02-15T05:33:56;11.47;;;7.77;;
56770;SDS011;42641;59.794;17.616;2023-02-15T05:36:23;10.83;;;7.63;;
56770;SDS011;42641;59.794;17.616;2023-02-15T05:38:49;11.33;;;7.67;;
56770;SDS011;42641;59.794;17.616;2023-02-15T05:41:16;10.93;;;7.67;;
56770;SDS011;42641;59.794;17.616;2023-02-15T05:43:42;13.63;;;7.03;;
56770;SDS011;42641;59.794;17.616;2023-02-15T05:46:09;10.20;;;7.10;;
56770;SDS011;42641;59.794;17.616;2023-02-15T05:48:36;9.37;;;7.23;;
56770;SDS011;42641;59.794;17.616;2023-02-15T05:51:04;12.43;;;7.60;;
56770;SDS011;42641;59.794;17.616;2023-02-15T05:53:33;12.20;;;7.30;;
56770;SDS011;42641;59.794;17.616;2023-02-15T05:56:01;10.47;;;7.07;;
56770;SDS011;42641;59.794;17.616;2023-02-15T05:58:29;10.90;;;7.23;;
56770;SDS011;42641;59.794;17.616;2023-02-15T06:00:58;13.43;;;7.53;;
56770;SDS011;42641;59.794;17.616;2023-02-15T06:03:24;11.30;;;7.07;;
56770;SDS011;42641;59.794;17.616;2023-02-15T06:05:51;11.60;;;7.20;;
56770;SDS011;42641;59.794;17.616;2023-02-15T06:08:18;11.73;;;7.13;;
56770;SDS011;42641;59.794;17.616;2023-02-15T06:10:45;12.73;;;7.70;;
56770;SDS011;42641;59.794;17.616;2023-02-15T06:13:12;11.50;;;6.83;;
56770;SDS011;42641;59.794;17.616;2023-02-15T06:15:38;13.53;;;7.23;;
56770;SDS011;42641;59.794;17.616;2023-02-15T06:18:05;14.17;;;8.30;;
56770;SDS011;42641;59.794;17.616;2023-02-15T06:20:31;13.43;;;7.50;;
56770;SDS011;42641;59.794;17.616;2023-02-15T06:22:58;14.90;;;8.80;;
56770;SDS011;42641;59.794;17.616;2023-02-15T06:25:24;14.30;;;8.70;;
56770;SDS011;42641;59.794;17.616;2023-02-15T06:27:50;13.73;;;8.73;;
56770;SDS011;42641;59.794;17.616;2023-02-15T06:30:17;15.00;;;8.50;;
56770;SDS011;42641;59.794;17.616;2023-02-15T06:32:43;11.73;;;8.03;;
56770;SDS011;42641;59.794;17.616;2023-02-15T06:35:10;14.10;;;8.30;;
56770;SDS011;42641;59.794;17.616;2023-02-15T06:37:38;13.40;;;8.37;;
56770;SDS011;42641;59.794;17.616;2023-02-15T06:40:04;14.40;;;8.00;;
56770;SDS011;42641;59.794;17.616;2023-02-15T06:42:32;11.60;;;7.70;;
56770;SDS011;42641;59.794;17.616;2023-02-15T06:44:58;10.70;;;7.83;;
56770;SDS011;42641;59.794;17.616;2023-02-15T06:47:25;17.03;;;9.00;;
56770;SDS011;42641;59.794;17.616;2023-02-15T06:49:52;15.97;;;8.53;;
56770;SDS011;42641;59.794;17.616;2023-02-15T06:52:18;14.73;;;8.03;;
56770;SDS011;42641;59.794;17.616;2023-02-15T06:54:45;16.63;;;8.30;;
56770;SDS011;42641;59.794;17.616;2023-02-15T06:57:11;14.67;;;8.10;;
56770;SDS011;42641;59.794;17.616;2023-02-15T06:59:37;16.20;;;8.67;;
56770;SDS011;42641;59.794;17.616;2023-02-15T07:02:04;16.10;;;8.93;;
56770;SDS011;42641;59.794;17.616;2023-02-15T07:04:30;15.90;;;8.73;;
56770;SDS011;42641;59.794;17.616;2023-02-15T07:06:56;13.80;;;8.57;;
56770;SDS011;42641;59.794;17.616;2023-02-15T07:09:23;13.60;;;8.30;;
56770;SDS011;42641;59.794;17.616;2023-02-15T07:11:49;13.60;;;7.97;;
56770;SDS011;42641;59.794;17.616;2023-02-15T07:14:34;16.07;;;8.43;;
56770;SDS011;42641;59.794;17.616;2023-02-15T07:17:01;14.73;;;8.93;;
56770;SDS011;42641;59.794;17.616;2023-02-15T07:19:27;17.00;;;9.17;;
56770;SDS011;42641;59.794;17.616;2023-02-15T07:21:53;14.83;;;9.30;;
56770;SDS011;42641;59.794;17.616;2023-02-15T07:24:20;15.30;;;8.90;;
56770;SDS011;42641;59.794;17.616;2023-02-15T07:26:46;12.90;;;8.27;;
56770;SDS011;42641;59.794;17.616;2023-02-15T07:29:12;13.23;;;8.37;;
56770;SDS011;42641;59.794;17.616;2023-02-15T07:31:39;13.20;;;8.60;;
56770;SDS011;42641;59.794;17.616;2023-02-15T07:34:06;11.13;;;7.63;;
56770;SDS011;42641;59.794;17.616;2023-02-15T07:36:33;14.73;;;9.20;;
56770;SDS011;42641;59.794;17.616;2023-02-15T07:39:00;14.30;;;9.90;;
56770;SDS011;42641;59.794;17.616;2023-02-15T07:41:26;13.43;;;8.30;;
56770;SDS011;42641;59.794;17.616;2023-02-15T07:43:52;14.03;;;8.60;;
56770;SDS011;42641;59.794;17.616;2023-02-15T07:46:19;13.03;;;8.33;;
56770;SDS011;42641;59.794;17.616;2023-02-15T07:48:46;14.97;;;8.13;;
56770;SDS011;42641;59.794;17.616;2023-02-15T07:51:13;13.00;;;8.27;;
56770;SDS011;42641;59.794;17.616;2023-02-15T07:53:40;12.73;;;8.53;;
56770;SDS011;42641;59.794;17.616;2023-02-15T07:56:09;10.90;;;7.37;;
56770;SDS011;42641;59.794;17.616;2023-02-15T07:58:36;16.07;;;8.50;;
56770;SDS011;42641;59.794;17.616;2023-02-15T08:01:23;11.40;;;7.37;;
56770;SDS011;42641;59.794;17.616;2023-02-15T08:03:52;12.40;;;8.13;;
56770;SDS011;42641;59.794;17.616;2023-02-15T08:06:20;12.67;;;8.37;;
56770;SDS011;42641;59.794;17.616;2023-02-15T08:08:48;12.83;;;7.80;;
56770;SDS011;42641;59.794;17.616;2023-02-15T08:11:16;10.77;;;7.67;;
56770;SDS011;42641;59.794;17.616;2023-02-15T08:19:07;13.13;;;8.27;;
56770;SDS011;42641;59.794;17.616;2023-02-15T08:21:36;15.70;;;8.33;;
56770;SDS011;42641;59.794;17.616;2023-02-15T08:24:05;13.80;;;7.90;;
56770;SDS011;42641;59.794;17.616;2023-02-15T08:26:33;12.37;;;8.00;;
56770;SDS011;42641;59.794;17.616;2023-02-15T08:29:00;11.40;;;8.13;;
56770;SDS011;42641;59.794;17.616;2023-02-15T08:31:27;13.73;;;7.70;;
56770;SDS011;42641;59.794;17.616;2023-02-15T08:33:55;12.50;;;7.70;;
56770;SDS011;42641;59.794;17.616;2023-02-15T08:36:23;12.67;;;7.90;;
56770;SDS011;42641;59.794;17.616;2023-02-15T08:38:52;12.00;;;7.73;;
56770;SDS011;42641;59.794;17.616;2023-02-15T08:41:29;11.73;;;7.77;;
56770;SDS011;42641;59.794;17.616;2023-02-15T08:43:58;11.57;;;7.17;;
56770;SDS011;42641;59.794;17.616;2023-02-15T08:46:27;13.10;;;8.03;;
56770;SDS011;42641;59.794;17.616;2023-02-15T08:48:55;12.63;;;7.57;;
56770;SDS011;42641;59.794;17.616;2023-02-15T08:51:25;12.30;;;6.73;;
56770;SDS011;42641;59.794;17.616;2023-02-15T08:53:55;12.80;;;7.17;;
56770;SDS011;42641;59.794;17.616;2023-02-15T08:56:24;11.83;;;7.47;;
56770;SDS011;42641;59.794;17.616;2023-02-15T08:58:55;11.57;;;7.57;;
56770;SDS011;42641;59.794;17.616;2023-02-15T09:01:23;13.13;;;7.30;;
56770;SDS011;42641;59.794;17.616;2023-02-15T09:03:55;13.23;;;7.17;;
56770;SDS011;42641;59.794;17.616;2023-02-15T09:06:23;11.57;;;7.10;;
56770;SDS011;42641;59.794;17.616;2023-02-15T09:08:51;12.07;;;7.37;;
56770;SDS011;42641;59.794;17.616;2023-02-15T09:11:22;12.07;;;7.30;;
56770;SDS011;42641;59.794;17.616;2023-02-15T09:16:24;15.00;;;8.00;;
56770;SDS011;42641;59.794;17.616;2023-02-15T09:18:52;14.40;;;8.23;;
56770;SDS011;42641;59.794;17.616;2023-02-15T09:21:20;12.07;;;7.73;;
56770;SDS011;42641;59.794;17.616;2023-02-15T09:23:48;10.93;;;7.57;;
56770;SDS011;42641;59.794;17.616;2023-02-15T09:26:21;12.33;;;7.83;;
56770;SDS011;42641;59.794;17.616;2023-02-15T09:28:53;11.80;;;7.47;;
56770;SDS011;42641;59.794;17.616;2023-02-15T09:31:22;12.63;;;7.80;;
56770;SDS011;42641;59.794;17.616;2023-02-15T09:33:50;11.83;;;7.73;;
56770;SDS011;42641;59.794;17.616;2023-02-15T09:38:55;11.97;;;7.50;;
56770;SDS011;42641;59.794;17.616;2023-02-15T09:44:37;11.67;;;7.73;;
56770;SDS011;42641;59.794;17.616;2023-02-15T10:00:40;12.70;;;7.03;;
56770;SDS011;42641;59.794;17.616;2023-02-15T10:09:16;13.03;;;7.53;;
56770;SDS011;42641;59.794;17.616;2023-02-15T10:28:49;14.07;;;7.83;;
56770;SDS011;42641;59.794;17.616;2023-02-15T10:31:27;9.60;;;6.37;;
56770;SDS011;42641;59.794;17.616;2023-02-15T10:34:15;10.40;;;6.53;;
56770;SDS011;42641;59.794;17.616;2023-02-15T10:56:01;9.57;;;6.47;;
56770;SDS011;42641;59.794;17.616;2023-02-15T10:59:00;11.40;;;7.23;;
56770;SDS011;42641;59.794;17.616;2023-02-15T11:01:53;11.33;;;6.63;;
56770;SDS011;42641;59.794;17.616;2023-02-15T11:06:53;9.87;;;6.97;;
56770;SDS011;42641;59.794;17.616;2023-02-15T11:09:24;12.57;;;7.30;;
56770;SDS011;42641;59.794;17.616;2023-02-15T11:11:55;12.70;;;7.53;;
56770;SDS011;42641;59.794;17.616;2023-02-15T11:17:10;13.67;;;7.63;;
56770;SDS011;42641;59.794;17.616;2023-02-15T11:19:47;12.07;;;7.47;;
56770;SDS011;42641;59.794;17.616;2023-02-15T11:22:34;11.80;;;7.63;;
56770;SDS011;42641;59.794;17.616;2023-02-15T11:25:02;13.90;;;7.53;;
56770;SDS011;42641;59.794;17.616;2023-02-15T11:27:49;10.87;;;7.20;;
56770;SDS011;42641;59.794;17.616;2023-02-15T11:30:19;13.07;;;7.63;;
56770;SDS011;42641;59.794;17.616;2023-02-15T11:32:57;14.17;;;7.40;;
56770;SDS011;42641;59.794;17.616;2023-02-15T11:35:29;11.97;;;7.87;;
56770;SDS011;42641;59.794;17.616;2023-02-15T11:38:10;13.30;;;8.43;;
56770;SDS011;42641;59.794;17.616;2023-02-15T11:40:58;10.27;;;6.57;;
56770;SDS011;42641;59.794;17.616;2023-02-15T11:46:04;12.97;;;8.23;;
56770;SDS011;42641;59.794;17.616;2023-02-15T11:48:31;13.67;;;7.37;;
56770;SDS011;42641;59.794;17.616;2023-02-15T11:50:59;16.03;;;8.47;;
56770;SDS011;42641;59.794;17.616;2023-02-15T11:53:28;14.67;;;7.83;;
56770;SDS011;42641;59.794;17.616;2023-02-15T11:56:02;12.73;;;8.03;;
56770;SDS011;42641;59.794;17.616;2023-02-15T12:03:46;14.10;;;7.23;;
56770;SDS011;42641;59.794;17.616;2023-02-15T12:06:20;15.00;;;7.70;;
56770;SDS011;42641;59.794;17.616;2023-02-15T12:09:13;13.20;;;8.13;;
56770;SDS011;42641;59.794;17.616;2023-02-15T12:11:55;13.80;;;8.43;;
56770;SDS011;42641;59.794;17.616;2023-02-15T12:15:00;15.03;;;8.13;;
56770;SDS011;42641;59.794;17.616;2023-02-15T12:17:29;13.03;;;7.97;;
56770;SDS011;42641;59.794;17.616;2023-02-15T12:20:41;11.03;;;7.03;;
56770;SDS011;42641;59.794;17.616;2023-02-15T12:22:59;11.77;;;7.00;;
56770;SDS011;42641;59.794;17.616;2023-02-15T12:25:30;11.47;;;6.87;;
56770;SDS011;42641;59.794;17.616;2023-02-15T12:30:53;12.73;;;7.77;;
56770;SDS011;42641;59.794;17.616;2023-02-15T12:33:24;13.70;;;8.00;;
56770;SDS011;42641;59.794;17.616;2023-02-15T12:39:14;12.30;;;7.77;;
56770;SDS011;42641;59.794;17.616;2023-02-15T12:44:20;15.20;;;8.10;;
56770;SDS011;42641;59.794;17.616;2023-02-15T12:49:32;15.17;;;7.73;;
56770;SDS011;42641;59.794;17.616;2023-02-15T12:52:05;15.40;;;7.57;;
56770;SDS011;42641;59.794;17.616;2023-02-15T12:54:49;12.30;;;7.10;;
56770;SDS011;42641;59.794;17.616;2023-02-15T12:59:52;11.30;;;7.17;;
56770;SDS011;42641;59.794;17.616;2023-02-15T13:02:29;12.53;;;7.37;;
56770;SDS011;42641;59.794;17.616;2023-02-15T13:07:54;13.83;;;7.37;;
56770;SDS011;42641;59.794;17.616;2023-02-15T13:10:28;15.27;;;7.10;;
56770;SDS011;42641;59.794;17.616;2023-02-15T13:12:57;12.50;;;7.13;;
56770;SDS011;42641;59.794;17.616;2023-02-15T13:15:25;17.23;;;8.33;;
56770;SDS011;42641;59.794;17.616;2023-02-15T13:18:03;14.60;;;7.93;;
56770;SDS011;42641;59.794;17.616;2023-02-15T13:20:36;13.70;;;7.50;;
56770;SDS011;42641;59.794;17.616;2023-02-15T13:23:12;16.00;;;8.17;;
56770;SDS011;42641;59.794;17.616;2023-02-15T13:26:02;12.63;;;7.60;;
56770;SDS011;42641;59.794;17.616;2023-02-15T13:31:37;13.37;;;8.37;;
56770;SDS011;42641;59.794;17.616;2023-02-15T13:34:09;12.73;;;7.40;;
56770;SDS011;42641;59.794;17.616;2023-02-15T13:39:31;13.17;;;7.30;;
56770;SDS011;42641;59.794;17.616;2023-02-15T13:42:18;13.63;;;7.60;;
56770;SDS011;42641;59.794;17.616;2023-02-15T13:44:54;14.57;;;7.73;;
56770;SDS011;42641;59.794;17.616;2023-02-15T14:01:34;14.67;;;7.97;;
56770;SDS011;42641;59.794;17.616;2023-02-15T14:19:58;11.03;;;6.73;;
56770;SDS011;42641;59.794;17.616;2023-02-15T14:23:51;11.77;;;6.93;;
56770;SDS011;42641;59.794;17.616;2023-02-15T14:26:46;12.03;;;7.30;;
56770;SDS011;42641;59.794;17.616;2023-02-15T14:31:46;16.23;;;8.27;;
56770;SDS011;42641;59.794;17.616;2023-02-15T14:34:37;13.27;;;8.13;;
56770;SDS011;42641;59.794;17.616;2023-02-15T14:37:16;12.67;;;7.43;;
56770;SDS011;42641;59.794;17.616;2023-02-15T14:39:57;14.83;;;7.60;;
56770;SDS011;42641;59.794;17.616;2023-02-15T14:42:55;12.83;;;7.37;;
56770;SDS011;42641;59.794;17.616;2023-02-15T14:45:30;11.07;;;7.23;;
56770;SDS011;42641;59.794;17.616;2023-02-15T14:48:21;16.63;;;8.13;;
56770;SDS011;42641;59.794;17.616;2023-02-15T14:50:47;16.83;;;7.87;;
56770;SDS011;42641;59.794;17.616;2023-02-15T14:56:05;14.70;;;7.67;;
56770;SDS011;42641;59.794;17.616;2023-02-15T15:01:31;14.60;;;8.30;;
56770;SDS011;42641;59.794;17.616;2023-02-15T15:04:00;13.27;;;7.87;;
56770;SDS011;42641;59.794;17.616;2023-02-15T15:06:32;14.87;;;7.80;;
56770;SDS011;42641;59.794;17.616;2023-02-15T15:09:01;14.93;;;8.07;;
56770;SDS011;42641;59.794;17.616;2023-02-15T15:11:45;14.67;;;7.77;;
56770;SDS011;42641;59.794;17.616;2023-02-15T15:17:00;16.77;;;7.90;;
56770;SDS011;42641;59.794;17.616;2023-02-15T15:22:20;13.80;;;7.97;;
56770;SDS011;42641;59.794;17.616;2023-02-15T15:24:47;14.37;;;7.97;;
56770;SDS011;42641;59.794;17.616;2023-02-15T15:41:19;15.17;;;7.50;;
56770;SDS011;42641;59.794;17.616;2023-02-15T15:49:36;13.73;;;7.10;;
56770;SDS011;42641;59.794;17.616;2023-02-15T15:52:12;10.37;;;7.00;;
56770;SDS011;42641;59.794;17.616;2023-02-15T15:54:43;13.50;;;7.53;;
56770;SDS011;42641;59.794;17.616;2023-02-15T15:57:26;14.13;;;7.47;;
56770;SDS011;42641;59.794;17.616;2023-02-15T15:59:58;13.50;;;7.30;;
56770;SDS011;42641;59.794;17.616;2023-02-15T16:02:25;13.77;;;7.07;;
56770;SDS011;42641;59.794;17.616;2023-02-15T16:04:52;12.27;;;6.83;;
56770;SDS011;42641;59.794;17.616;2023-02-15T16:09:59;12.40;;;7.00;;
56770;SDS011;42641;59.794;17.616;2023-02-15T16:12:27;12.07;;;6.80;;
56770;SDS011;42641;59.794;17.616;2023-02-15T16:14:56;11.70;;;6.67;;
56770;SDS011;42641;59.794;17.616;2023-02-15T16:19:57;12.80;;;6.90;;
56770;SDS011;42641;59.794;17.616;2023-02-15T16:22:31;16.67;;;7.87;;
56770;SDS011;42641;59.794;17.616;2023-02-15T16:30:27;12.37;;;6.47;;
56770;SDS011;42641;59.794;17.616;2023-02-15T16:33:19;13.90;;;7.10;;
56770;SDS011;42641;59.794;17.616;2023-02-15T16:35:56;13.50;;;7.23;;
56770;SDS011;42641;59.794;17.616;2023-02-15T16:41:15;11.53;;;6.80;;
56770;SDS011;42641;59.794;17.616;2023-02-15T16:43:45;13.67;;;7.27;;
56770;SDS011;42641;59.794;17.616;2023-02-15T16:46:36;10.13;;;6.10;;
56770;SDS011;42641;59.794;17.616;2023-02-15T16:49:16;12.43;;;6.47;;
56770;SDS011;42641;59.794;17.616;2023-02-15T16:52:04;10.20;;;6.63;;
56770;SDS011;42641;59.794;17.616;2023-02-15T16:54:32;9.40;;;6.07;;
56770;SDS011;42641;59.794;17.616;2023-02-15T16:57:00;12.23;;;6.10;;
56770;SDS011;42641;59.794;17.616;2023-02-15T16:59:32;12.83;;;6.73;;
56770;SDS011;42641;59.794;17.616;2023-02-15T17:02:21;11.33;;;7.63;;
56770;SDS011;42641;59.794;17.616;2023-02-15T17:07:33;11.70;;;6.07;;
56770;SDS011;42641;59.794;17.616;2023-02-15T17:10:15;11.43;;;6.50;;
56770;SDS011;42641;59.794;17.616;2023-02-15T17:13:03;9.87;;;5.60;;
56770;SDS011;42641;59.794;17.616;2023-02-15T17:15:39;10.70;;;6.13;;
56770;SDS011;42641;59.794;17.616;2023-02-15T17:18:25;12.73;;;6.10;;
56770;SDS011;42641;59.794;17.616;2023-02-15T17:21:00;13.67;;;6.40;;
56770;SDS011;42641;59.794;17.616;2023-02-15T17:23:39;10.43;;;5.90;;
56770;SDS011;42641;59.794;17.616;2023-02-15T17:26:24;10.77;;;6.37;;
56770;SDS011;42641;59.794;17.616;2023-02-15T17:28:58;11.27;;;6.43;;
56770;SDS011;42641;59.794;17.616;2023-02-15T17:31:29;14.57;;;8.27;;
56770;SDS011;42641;59.794;17.616;2023-02-15T17:33:58;15.70;;;6.90;;
56770;SDS011;42641;59.794;17.616;2023-02-15T17:36:26;13.93;;;6.50;;
56770;SDS011;42641;59.794;17.616;2023-02-15T17:38:59;10.73;;;5.93;;
56770;SDS011;42641;59.794;17.616;2023-02-15T17:41:30;13.17;;;7.33;;
56770;SDS011;42641;59.794;17.616;2023-02-15T17:44:02;11.40;;;6.90;;
56770;SDS011;42641;59.794;17.616;2023-02-15T17:46:33;12.73;;;6.83;;
56770;SDS011;42641;59.794;17.616;2023-02-15T17:49:05;10.33;;;6.50;;
56770;SDS011;42641;59.794;17.616;2023-02-15T17:51:32;13.27;;;7.33;;
56770;SDS011;42641;59.794;17.616;2023-02-15T17:54:01;10.47;;;6.50;;
56770;SDS011;42641;59.794;17.616;2023-02-15T17:56:46;14.77;;;6.93;;
56770;SDS011;42641;59.794;17.616;2023-02-15T17:59:12;12.60;;;6.40;;
56770;SDS011;42641;59.794;17.616;2023-02-15T18:01:44;10.97;;;6.60;;
56770;SDS011;42641;59.794;17.616;2023-02-15T18:04:31;9.90;;;6.70;;
56770;SDS011;42641;59.794;17.616;2023-02-15T18:07:20;12.13;;;7.27;;
56770;SDS011;42641;59.794;17.616;2023-02-15T18:10:15;15.83;;;7.97;;
56770;SDS011;42641;59.794;17.616;2023-02-15T18:13:02;17.33;;;6.77;;
56770;SDS011;42641;59.794;17.616;2023-02-15T18:15:29;11.63;;;6.77;;
56770;SDS011;42641;59.794;17.616;2023-02-15T18:17:55;10.10;;;5.87;;
56770;SDS011;42641;59.794;17.616;2023-02-15T18:20:30;10.97;;;6.50;;
56770;SDS011;42641;59.794;17.616;2023-02-15T18:23:01;16.00;;;7.50;;
56770;SDS011;42641;59.794;17.616;2023-02-15T18:25:28;11.83;;;6.50;;
56770;SDS011;42641;59.794;17.616;2023-02-15T18:27:54;11.70;;;6.83;;
56770;SDS011;42641;59.794;17.616;2023-02-15T18:30:22;10.40;;;7.13;;
56770;SDS011;42641;59.794;17.616;2023-02-15T18:32:51;9.77;;;6.37;;
56770;SDS011;42641;59.794;17.616;2023-02-15T18:35:22;16.30;;;6.70;;
56770;SDS011;42641;59.794;17.616;2023-02-15T18:37:51;11.97;;;7.07;;